sensor_id;sensor_type;location;lat;lon;timestamp;P1;durP1;ratioP1;P2;durP2;ratioP2
68923;SDS011;55961;52.156;20.942;2023-05-09T00:00:44;30.27;;;13.23;;
68923;SDS011;55961;52.156;20.942;2023-05-09T00:03:12;30.23;;;14.25;;
68923;SDS011;55961;52.156;20.942;2023-05-09T00:05:38;30.05;;;12.88;;
68923;SDS011;55961;52.156;20.942;2023-05-09T00:08:05;26.37;;;13.70;;
68923;SDS011;55961;52.156;20.942;2023-05-09T00:10:31;29.70;;;13.38;;
68923;SDS011;55961;52.156;20.942;2023-05-09T00:12:57;29.85;;;13.73;;
68923;SDS011;55961;52.156;20.942;2023-05-09T00:15:24;28.38;;;13.43;;
68923;SDS011;55961;52.156;20.942;2023-05-09T00:17:51;27.43;;;13.97;;
68923;SDS011;55961;52.156;20.942;2023-05-09T00:20:17;30.80;;;13.18;;
68923;SDS011;55961;52.156;20.942;2023-05-09T00:22:43;24.00;;;13.57;;
68923;SDS011;55961;52.156;20.942;2023-05-09T00:25:09;27.27;;;13.10;;
68923;SDS011;55961;52.156;20.942;2023-05-09T00:27:36;27.03;;;13.53;;
68923;SDS011;55961;52.156;20.942;2023-05-09T00:30:02;23.15;;;12.82;;
68923;SDS011;55961;52.156;20.942;2023-05-09T00:32:29;23.45;;;13.48;;
68923;SDS011;55961;52.156;20.942;2023-05-09T00:34:56;34.03;;;15.52;;
68923;SDS011;55961;52.156;20.942;2023-05-09T00:37:23;30.43;;;14.87;;
68923;SDS011;55961;52.156;20.942;2023-05-09T00:39:48;30.55;;;14.30;;
68923;SDS011;55961;52.156;20.942;2023-05-09T00:42:14;27.10;;;13.18;;
68923;SDS011;55961;52.156;20.942;2023-05-09T00:44:40;26.02;;;13.05;;
68923;SDS011;55961;52.156;20.942;2023-05-09T00:47:07;21.63;;;12.13;;
68923;SDS011;55961;52.156;20.942;2023-05-09T00:49:33;23.25;;;12.10;;
68923;SDS011;55961;52.156;20.942;2023-05-09T00:51:59;24.80;;;13.18;;
68923;SDS011;55961;52.156;20.942;2023-05-09T00:54:26;24.33;;;12.45;;
68923;SDS011;55961;52.156;20.942;2023-05-09T00:56:52;21.53;;;12.00;;
68923;SDS011;55961;52.156;20.942;2023-05-09T00:59:18;27.63;;;12.13;;
68923;SDS011;55961;52.156;20.942;2023-05-09T01:01:44;26.10;;;12.65;;
68923;SDS011;55961;52.156;20.942;2023-05-09T01:04:11;28.55;;;12.60;;
68923;SDS011;55961;52.156;20.942;2023-05-09T01:06:49;21.90;;;12.53;;
68923;SDS011;55961;52.156;20.942;2023-05-09T01:09:40;24.42;;;12.85;;
68923;SDS011;55961;52.156;20.942;2023-05-09T01:15:07;21.75;;;11.70;;
68923;SDS011;55961;52.156;20.942;2023-05-09T01:20:28;24.27;;;12.80;;
68923;SDS011;55961;52.156;20.942;2023-05-09T01:26:04;27.08;;;12.25;;
68923;SDS011;55961;52.156;20.942;2023-05-09T01:31:33;24.80;;;12.48;;
68923;SDS011;55961;52.156;20.942;2023-05-09T01:34:05;26.47;;;12.40;;
68923;SDS011;55961;52.156;20.942;2023-05-09T01:36:32;24.42;;;12.45;;
68923;SDS011;55961;52.156;20.942;2023-05-09T01:39:03;22.92;;;11.50;;
68923;SDS011;55961;52.156;20.942;2023-05-09T01:41:30;21.45;;;12.02;;
68923;SDS011;55961;52.156;20.942;2023-05-09T01:43:59;22.15;;;11.10;;
68923;SDS011;55961;52.156;20.942;2023-05-09T01:46:27;20.97;;;11.73;;
68923;SDS011;55961;52.156;20.942;2023-05-09T01:48:55;25.23;;;11.95;;
68923;SDS011;55961;52.156;20.942;2023-05-09T01:51:22;24.83;;;12.50;;
68923;SDS011;55961;52.156;20.942;2023-05-09T01:53:50;22.83;;;11.18;;
68923;SDS011;55961;52.156;20.942;2023-05-09T01:56:18;20.33;;;10.90;;
68923;SDS011;55961;52.156;20.942;2023-05-09T01:58:46;25.50;;;11.77;;
68923;SDS011;55961;52.156;20.942;2023-05-09T02:01:15;21.92;;;11.45;;
68923;SDS011;55961;52.156;20.942;2023-05-09T02:03:41;23.67;;;11.50;;
68923;SDS011;55961;52.156;20.942;2023-05-09T02:06:10;24.05;;;11.73;;
68923;SDS011;55961;52.156;20.942;2023-05-09T02:08:45;23.13;;;11.07;;
68923;SDS011;55961;52.156;20.942;2023-05-09T02:11:32;21.13;;;11.17;;
68923;SDS011;55961;52.156;20.942;2023-05-09T02:13:58;21.50;;;10.80;;
68923;SDS011;55961;52.156;20.942;2023-05-09T02:16:24;25.70;;;12.57;;
68923;SDS011;55961;52.156;20.942;2023-05-09T02:18:51;24.65;;;13.52;;
68923;SDS011;55961;52.156;20.942;2023-05-09T02:21:16;22.63;;;12.47;;
68923;SDS011;55961;52.156;20.942;2023-05-09T02:23:43;24.27;;;13.52;;
68923;SDS011;55961;52.156;20.942;2023-05-09T02:26:08;23.77;;;11.98;;
68923;SDS011;55961;52.156;20.942;2023-05-09T02:28:35;22.55;;;11.52;;
68923;SDS011;55961;52.156;20.942;2023-05-09T02:31:02;21.73;;;11.33;;
68923;SDS011;55961;52.156;20.942;2023-05-09T02:33:33;22.20;;;11.70;;
68923;SDS011;55961;52.156;20.942;2023-05-09T02:36:01;23.65;;;12.70;;
68923;SDS011;55961;52.156;20.942;2023-05-09T02:38:27;30.00;;;14.38;;
68923;SDS011;55961;52.156;20.942;2023-05-09T02:40:53;24.93;;;11.67;;
68923;SDS011;55961;52.156;20.942;2023-05-09T02:43:19;29.75;;;13.95;;
68923;SDS011;55961;52.156;20.942;2023-05-09T02:45:45;23.90;;;11.40;;
68923;SDS011;55961;52.156;20.942;2023-05-09T02:48:11;29.63;;;13.25;;
68923;SDS011;55961;52.156;20.942;2023-05-09T02:50:37;28.87;;;16.13;;
68923;SDS011;55961;52.156;20.942;2023-05-09T02:53:04;29.02;;;15.57;;
68923;SDS011;55961;52.156;20.942;2023-05-09T02:55:30;28.92;;;15.35;;
68923;SDS011;55961;52.156;20.942;2023-05-09T02:57:56;29.05;;;13.88;;
68923;SDS011;55961;52.156;20.942;2023-05-09T03:00:22;28.53;;;13.63;;
68923;SDS011;55961;52.156;20.942;2023-05-09T03:02:50;24.20;;;12.82;;
68923;SDS011;55961;52.156;20.942;2023-05-09T03:05:16;24.50;;;11.68;;
68923;SDS011;55961;52.156;20.942;2023-05-09T03:07:42;23.17;;;11.65;;
68923;SDS011;55961;52.156;20.942;2023-05-09T03:10:09;23.73;;;11.30;;
68923;SDS011;55961;52.156;20.942;2023-05-09T03:12:38;21.67;;;11.75;;
68923;SDS011;55961;52.156;20.942;2023-05-09T03:15:05;23.80;;;11.48;;
68923;SDS011;55961;52.156;20.942;2023-05-09T03:17:31;21.45;;;11.10;;
68923;SDS011;55961;52.156;20.942;2023-05-09T03:19:57;23.93;;;11.57;;
68923;SDS011;55961;52.156;20.942;2023-05-09T03:22:23;22.05;;;11.75;;
68923;SDS011;55961;52.156;20.942;2023-05-09T03:24:49;20.63;;;10.70;;
68923;SDS011;55961;52.156;20.942;2023-05-09T03:27:15;24.63;;;12.00;;
68923;SDS011;55961;52.156;20.942;2023-05-09T03:29:41;25.10;;;11.97;;
68923;SDS011;55961;52.156;20.942;2023-05-09T03:32:07;24.35;;;12.48;;
68923;SDS011;55961;52.156;20.942;2023-05-09T03:34:33;26.33;;;12.17;;
68923;SDS011;55961;52.156;20.942;2023-05-09T03:36:59;22.95;;;11.10;;
68923;SDS011;55961;52.156;20.942;2023-05-09T03:39:24;26.55;;;13.10;;
68923;SDS011;55961;52.156;20.942;2023-05-09T03:41:50;24.48;;;12.18;;
68923;SDS011;55961;52.156;20.942;2023-05-09T03:44:16;25.50;;;13.73;;
68923;SDS011;55961;52.156;20.942;2023-05-09T03:46:42;25.08;;;13.45;;
68923;SDS011;55961;52.156;20.942;2023-05-09T03:49:08;28.77;;;13.30;;
68923;SDS011;55961;52.156;20.942;2023-05-09T03:51:34;22.13;;;13.33;;
68923;SDS011;55961;52.156;20.942;2023-05-09T03:54:00;29.55;;;13.98;;
68923;SDS011;55961;52.156;20.942;2023-05-09T03:56:26;25.77;;;13.18;;
68923;SDS011;55961;52.156;20.942;2023-05-09T03:58:52;29.55;;;15.20;;
68923;SDS011;55961;52.156;20.942;2023-05-09T04:01:18;26.90;;;15.80;;
68923;SDS011;55961;52.156;20.942;2023-05-09T04:03:44;32.28;;;16.42;;
68923;SDS011;55961;52.156;20.942;2023-05-09T04:06:10;35.03;;;17.17;;
68923;SDS011;55961;52.156;20.942;2023-05-09T04:08:36;34.25;;;19.55;;
68923;SDS011;55961;52.156;20.942;2023-05-09T04:11:02;39.75;;;23.35;;
68923;SDS011;55961;52.156;20.942;2023-05-09T04:13:28;34.70;;;21.03;;
68923;SDS011;55961;52.156;20.942;2023-05-09T04:15:56;38.15;;;21.38;;
68923;SDS011;55961;52.156;20.942;2023-05-09T04:18:21;36.55;;;21.95;;
68923;SDS011;55961;52.156;20.942;2023-05-09T04:20:47;35.57;;;22.53;;
68923;SDS011;55961;52.156;20.942;2023-05-09T04:23:13;37.72;;;22.50;;
68923;SDS011;55961;52.156;20.942;2023-05-09T04:25:39;38.53;;;23.13;;
68923;SDS011;55961;52.156;20.942;2023-05-09T04:28:05;34.73;;;21.43;;
68923;SDS011;55961;52.156;20.942;2023-05-09T04:30:31;45.30;;;27.52;;
68923;SDS011;55961;52.156;20.942;2023-05-09T04:32:57;33.47;;;21.50;;
68923;SDS011;55961;52.156;20.942;2023-05-09T04:35:23;40.47;;;24.08;;
68923;SDS011;55961;52.156;20.942;2023-05-09T04:37:50;49.13;;;32.60;;
68923;SDS011;55961;52.156;20.942;2023-05-09T04:40:16;31.42;;;21.17;;
68923;SDS011;55961;52.156;20.942;2023-05-09T04:42:42;30.93;;;19.57;;
68923;SDS011;55961;52.156;20.942;2023-05-09T04:45:08;32.43;;;18.47;;
68923;SDS011;55961;52.156;20.942;2023-05-09T04:47:35;31.38;;;17.75;;
68923;SDS011;55961;52.156;20.942;2023-05-09T04:50:02;31.38;;;16.90;;
68923;SDS011;55961;52.156;20.942;2023-05-09T04:52:32;30.25;;;16.80;;
68923;SDS011;55961;52.156;20.942;2023-05-09T04:54:58;24.45;;;16.02;;
68923;SDS011;55961;52.156;20.942;2023-05-09T04:57:23;25.47;;;15.40;;
68923;SDS011;55961;52.156;20.942;2023-05-09T04:59:50;25.83;;;14.50;;
68923;SDS011;55961;52.156;20.942;2023-05-09T05:02:17;21.90;;;13.23;;
68923;SDS011;55961;52.156;20.942;2023-05-09T05:04:44;20.83;;;11.68;;
68923;SDS011;55961;52.156;20.942;2023-05-09T05:07:09;21.80;;;10.77;;
68923;SDS011;55961;52.156;20.942;2023-05-09T05:09:36;20.25;;;10.50;;
68923;SDS011;55961;52.156;20.942;2023-05-09T05:15:42;17.80;;;9.63;;
68923;SDS011;55961;52.156;20.942;2023-05-09T05:18:08;17.88;;;9.00;;
68923;SDS011;55961;52.156;20.942;2023-05-09T05:20:34;17.00;;;8.60;;
68923;SDS011;55961;52.156;20.942;2023-05-09T05:23:00;30.10;;;13.93;;
68923;SDS011;55961;52.156;20.942;2023-05-09T05:25:26;16.60;;;8.27;;
68923;SDS011;55961;52.156;20.942;2023-05-09T05:27:52;13.70;;;7.20;;
68923;SDS011;55961;52.156;20.942;2023-05-09T05:30:18;12.18;;;6.88;;
68923;SDS011;55961;52.156;20.942;2023-05-09T05:32:45;14.90;;;7.07;;
68923;SDS011;55961;52.156;20.942;2023-05-09T05:35:11;14.03;;;6.83;;
68923;SDS011;55961;52.156;20.942;2023-05-09T05:37:37;13.30;;;6.57;;
68923;SDS011;55961;52.156;20.942;2023-05-09T05:40:04;13.77;;;7.18;;
68923;SDS011;55961;52.156;20.942;2023-05-09T05:42:31;14.00;;;6.75;;
68923;SDS011;55961;52.156;20.942;2023-05-09T05:44:57;11.73;;;6.30;;
68923;SDS011;55961;52.156;20.942;2023-05-09T05:47:35;11.50;;;6.10;;
68923;SDS011;55961;52.156;20.942;2023-05-09T05:50:01;10.68;;;5.40;;
68923;SDS011;55961;52.156;20.942;2023-05-09T05:52:31;13.65;;;5.97;;
68923;SDS011;55961;52.156;20.942;2023-05-09T05:54:57;13.43;;;5.93;;
68923;SDS011;55961;52.156;20.942;2023-05-09T05:57:23;8.83;;;4.23;;
68923;SDS011;55961;52.156;20.942;2023-05-09T05:59:49;10.98;;;5.18;;
68923;SDS011;55961;52.156;20.942;2023-05-09T06:02:16;11.52;;;5.38;;
68923;SDS011;55961;52.156;20.942;2023-05-09T06:04:42;9.13;;;4.05;;
68923;SDS011;55961;52.156;20.942;2023-05-09T06:07:09;9.27;;;4.23;;
68923;SDS011;55961;52.156;20.942;2023-05-09T06:09:36;8.32;;;3.50;;
68923;SDS011;55961;52.156;20.942;2023-05-09T06:12:02;8.48;;;3.47;;
68923;SDS011;55961;52.156;20.942;2023-05-09T06:14:28;9.68;;;3.50;;
68923;SDS011;55961;52.156;20.942;2023-05-09T06:16:54;12.13;;;6.03;;
68923;SDS011;55961;52.156;20.942;2023-05-09T06:19:20;7.43;;;2.60;;
68923;SDS011;55961;52.156;20.942;2023-05-09T06:21:46;7.10;;;2.42;;
68923;SDS011;55961;52.156;20.942;2023-05-09T06:24:12;8.38;;;2.55;;
68923;SDS011;55961;52.156;20.942;2023-05-09T06:26:38;6.13;;;2.40;;
68923;SDS011;55961;52.156;20.942;2023-05-09T06:29:04;7.27;;;2.70;;
68923;SDS011;55961;52.156;20.942;2023-05-09T06:31:30;8.60;;;3.20;;
68923;SDS011;55961;52.156;20.942;2023-05-09T06:33:57;5.90;;;2.30;;
68923;SDS011;55961;52.156;20.942;2023-05-09T06:36:23;5.25;;;2.60;;
68923;SDS011;55961;52.156;20.942;2023-05-09T06:38:49;6.27;;;3.00;;
68923;SDS011;55961;52.156;20.942;2023-05-09T06:41:15;6.05;;;2.50;;
68923;SDS011;55961;52.156;20.942;2023-05-09T06:43:40;4.78;;;2.63;;
68923;SDS011;55961;52.156;20.942;2023-05-09T06:46:06;6.90;;;2.70;;
68923;SDS011;55961;52.156;20.942;2023-05-09T06:48:32;9.88;;;2.63;;
68923;SDS011;55961;52.156;20.942;2023-05-09T06:50:58;5.60;;;2.20;;
68923;SDS011;55961;52.156;20.942;2023-05-09T06:53:24;6.80;;;2.23;;
68923;SDS011;55961;52.156;20.942;2023-05-09T06:55:50;8.00;;;2.70;;
68923;SDS011;55961;52.156;20.942;2023-05-09T06:58:16;5.15;;;2.13;;
68923;SDS011;55961;52.156;20.942;2023-05-09T07:00:42;11.40;;;3.67;;
68923;SDS011;55961;52.156;20.942;2023-05-09T07:03:08;6.87;;;2.60;;
68923;SDS011;55961;52.156;20.942;2023-05-09T07:05:35;5.00;;;1.83;;
68923;SDS011;55961;52.156;20.942;2023-05-09T07:08:00;6.07;;;2.60;;
68923;SDS011;55961;52.156;20.942;2023-05-09T07:10:26;5.20;;;2.20;;
68923;SDS011;55961;52.156;20.942;2023-05-09T07:12:52;6.72;;;2.30;;
68923;SDS011;55961;52.156;20.942;2023-05-09T07:15:18;5.68;;;2.40;;
68923;SDS011;55961;52.156;20.942;2023-05-09T07:17:44;7.25;;;2.70;;
68923;SDS011;55961;52.156;20.942;2023-05-09T07:20:11;7.20;;;2.87;;
68923;SDS011;55961;52.156;20.942;2023-05-09T07:22:37;5.47;;;2.53;;
68923;SDS011;55961;52.156;20.942;2023-05-09T07:25:04;5.03;;;2.50;;
68923;SDS011;55961;52.156;20.942;2023-05-09T07:27:34;6.07;;;1.77;;
68923;SDS011;55961;52.156;20.942;2023-05-09T07:30:02;4.93;;;2.33;;
68923;SDS011;55961;52.156;20.942;2023-05-09T07:32:31;5.60;;;2.30;;
68923;SDS011;55961;52.156;20.942;2023-05-09T07:34:57;5.60;;;2.17;;
68923;SDS011;55961;52.156;20.942;2023-05-09T07:37:23;5.15;;;2.13;;
68923;SDS011;55961;52.156;20.942;2023-05-09T07:39:49;6.68;;;2.20;;
68923;SDS011;55961;52.156;20.942;2023-05-09T07:42:16;5.32;;;2.28;;
68923;SDS011;55961;52.156;20.942;2023-05-09T07:44:42;4.90;;;1.53;;
68923;SDS011;55961;52.156;20.942;2023-05-09T07:47:08;5.00;;;2.60;;
68923;SDS011;55961;52.156;20.942;2023-05-09T07:49:34;7.82;;;4.20;;
68923;SDS011;55961;52.156;20.942;2023-05-09T07:52:00;5.70;;;2.20;;
68923;SDS011;55961;52.156;20.942;2023-05-09T07:54:27;4.18;;;1.75;;
68923;SDS011;55961;52.156;20.942;2023-05-09T07:56:53;3.72;;;1.67;;
68923;SDS011;55961;52.156;20.942;2023-05-09T07:59:19;3.67;;;1.60;;
68923;SDS011;55961;52.156;20.942;2023-05-09T08:01:45;4.17;;;2.00;;
68923;SDS011;55961;52.156;20.942;2023-05-09T08:04:11;4.90;;;1.75;;
68923;SDS011;55961;52.156;20.942;2023-05-09T08:06:37;4.25;;;1.65;;
68923;SDS011;55961;52.156;20.942;2023-05-09T08:09:03;4.67;;;2.10;;
68923;SDS011;55961;52.156;20.942;2023-05-09T08:11:31;3.85;;;1.88;;
68923;SDS011;55961;52.156;20.942;2023-05-09T08:13:57;5.30;;;2.08;;
68923;SDS011;55961;52.156;20.942;2023-05-09T08:16:23;5.20;;;1.63;;
68923;SDS011;55961;52.156;20.942;2023-05-09T08:18:49;3.80;;;1.87;;
68923;SDS011;55961;52.156;20.942;2023-05-09T08:21:15;15.18;;;3.33;;
68923;SDS011;55961;52.156;20.942;2023-05-09T08:23:41;4.72;;;1.40;;
68923;SDS011;55961;52.156;20.942;2023-05-09T08:26:07;4.10;;;1.67;;
68923;SDS011;55961;52.156;20.942;2023-05-09T08:28:33;2.95;;;1.50;;
68923;SDS011;55961;52.156;20.942;2023-05-09T08:30:58;4.57;;;1.58;;
68923;SDS011;55961;52.156;20.942;2023-05-09T08:33:25;3.55;;;1.60;;
68923;SDS011;55961;52.156;20.942;2023-05-09T08:35:51;5.13;;;1.80;;
68923;SDS011;55961;52.156;20.942;2023-05-09T08:38:18;3.80;;;1.80;;
68923;SDS011;55961;52.156;20.942;2023-05-09T08:40:44;3.33;;;1.50;;
68923;SDS011;55961;52.156;20.942;2023-05-09T08:43:11;4.03;;;1.70;;
68923;SDS011;55961;52.156;20.942;2023-05-09T08:45:40;3.90;;;1.93;;
68923;SDS011;55961;52.156;20.942;2023-05-09T08:48:12;4.20;;;1.65;;
68923;SDS011;55961;52.156;20.942;2023-05-09T08:50:41;4.75;;;2.00;;
68923;SDS011;55961;52.156;20.942;2023-05-09T08:53:08;4.55;;;2.03;;
68923;SDS011;55961;52.156;20.942;2023-05-09T08:55:34;6.33;;;3.70;;
68923;SDS011;55961;52.156;20.942;2023-05-09T08:58:00;4.18;;;1.88;;
68923;SDS011;55961;52.156;20.942;2023-05-09T09:00:26;5.07;;;2.38;;
68923;SDS011;55961;52.156;20.942;2023-05-09T09:02:53;4.93;;;1.70;;
68923;SDS011;55961;52.156;20.942;2023-05-09T09:05:22;4.82;;;1.92;;
68923;SDS011;55961;52.156;20.942;2023-05-09T09:07:49;6.13;;;1.90;;
68923;SDS011;55961;52.156;20.942;2023-05-09T09:10:15;5.78;;;2.45;;
68923;SDS011;55961;52.156;20.942;2023-05-09T09:12:42;3.95;;;1.70;;
68923;SDS011;55961;52.156;20.942;2023-05-09T09:15:09;4.82;;;1.88;;
68923;SDS011;55961;52.156;20.942;2023-05-09T09:17:41;3.92;;;1.60;;
68923;SDS011;55961;52.156;20.942;2023-05-09T09:20:10;5.03;;;1.90;;
68923;SDS011;55961;52.156;20.942;2023-05-09T09:22:39;3.78;;;1.73;;
68923;SDS011;55961;52.156;20.942;2023-05-09T09:25:08;4.97;;;1.70;;
68923;SDS011;55961;52.156;20.942;2023-05-09T09:27:34;4.72;;;1.60;;
68923;SDS011;55961;52.156;20.942;2023-05-09T09:30:09;4.07;;;1.63;;
68923;SDS011;55961;52.156;20.942;2023-05-09T09:32:36;4.05;;;1.70;;
68923;SDS011;55961;52.156;20.942;2023-05-09T09:35:06;4.20;;;2.03;;
68923;SDS011;55961;52.156;20.942;2023-05-09T09:37:34;3.90;;;2.00;;
68923;SDS011;55961;52.156;20.942;2023-05-09T09:40:02;4.25;;;1.65;;
68923;SDS011;55961;52.156;20.942;2023-05-09T09:42:42;4.73;;;1.80;;
68923;SDS011;55961;52.156;20.942;2023-05-09T09:45:10;4.22;;;1.40;;
68923;SDS011;55961;52.156;20.942;2023-05-09T09:47:38;7.55;;;2.25;;
68923;SDS011;55961;52.156;20.942;2023-05-09T09:50:14;4.18;;;1.77;;
68923;SDS011;55961;52.156;20.942;2023-05-09T09:52:41;3.50;;;1.80;;
68923;SDS011;55961;52.156;20.942;2023-05-09T09:55:07;4.80;;;1.37;;
68923;SDS011;55961;52.156;20.942;2023-05-09T09:57:34;5.35;;;1.60;;
68923;SDS011;55961;52.156;20.942;2023-05-09T10:00:02;3.30;;;1.83;;
68923;SDS011;55961;52.156;20.942;2023-05-09T10:02:30;3.63;;;1.63;;
68923;SDS011;55961;52.156;20.942;2023-05-09T10:05:00;3.58;;;1.50;;
68923;SDS011;55961;52.156;20.942;2023-05-09T10:07:34;5.77;;;1.90;;
68923;SDS011;55961;52.156;20.942;2023-05-09T10:10:00;5.05;;;1.73;;
68923;SDS011;55961;52.156;20.942;2023-05-09T10:12:35;4.40;;;2.00;;
68923;SDS011;55961;52.156;20.942;2023-05-09T10:15:05;3.97;;;1.73;;
68923;SDS011;55961;52.156;20.942;2023-05-09T10:17:34;3.53;;;1.77;;
68923;SDS011;55961;52.156;20.942;2023-05-09T10:20:01;4.40;;;2.10;;
68923;SDS011;55961;52.156;20.942;2023-05-09T10:22:30;4.22;;;1.52;;
68923;SDS011;55961;52.156;20.942;2023-05-09T10:25:04;5.70;;;2.53;;
68923;SDS011;55961;52.156;20.942;2023-05-09T10:27:35;4.40;;;2.28;;
68923;SDS011;55961;52.156;20.942;2023-05-09T10:30:12;4.93;;;2.10;;
68923;SDS011;55961;52.156;20.942;2023-05-09T10:35:49;4.68;;;1.90;;
68923;SDS011;55961;52.156;20.942;2023-05-09T10:38:14;7.38;;;2.28;;
68923;SDS011;55961;52.156;20.942;2023-05-09T10:40:41;3.97;;;2.05;;
68923;SDS011;55961;52.156;20.942;2023-05-09T10:43:11;4.18;;;1.95;;
68923;SDS011;55961;52.156;20.942;2023-05-09T10:45:37;3.97;;;2.10;;
68923;SDS011;55961;52.156;20.942;2023-05-09T10:48:04;4.55;;;2.20;;
68923;SDS011;55961;52.156;20.942;2023-05-09T10:50:33;5.32;;;2.25;;
68923;SDS011;55961;52.156;20.942;2023-05-09T10:58:16;4.27;;;2.30;;
68923;SDS011;55961;52.156;20.942;2023-05-09T11:00:51;4.00;;;2.00;;
68923;SDS011;55961;52.156;20.942;2023-05-09T11:03:18;5.00;;;2.25;;
68923;SDS011;55961;52.156;20.942;2023-05-09T11:05:44;5.45;;;2.13;;
68923;SDS011;55961;52.156;20.942;2023-05-09T11:10:45;3.33;;;1.63;;
68923;SDS011;55961;52.156;20.942;2023-05-09T11:13:11;4.70;;;2.15;;
68923;SDS011;55961;52.156;20.942;2023-05-09T11:18:18;4.30;;;1.70;;
68923;SDS011;55961;52.156;20.942;2023-05-09T11:20:44;4.90;;;2.03;;
68923;SDS011;55961;52.156;20.942;2023-05-09T11:23:17;5.32;;;2.05;;
68923;SDS011;55961;52.156;20.942;2023-05-09T11:25:47;4.47;;;2.08;;
68923;SDS011;55961;52.156;20.942;2023-05-09T11:28:26;3.50;;;2.03;;
68923;SDS011;55961;52.156;20.942;2023-05-09T11:31:12;4.07;;;1.83;;
68923;SDS011;55961;52.156;20.942;2023-05-09T11:33:39;5.22;;;2.10;;
68923;SDS011;55961;52.156;20.942;2023-05-09T11:36:13;4.88;;;1.80;;
68923;SDS011;55961;52.156;20.942;2023-05-09T11:38:58;4.38;;;1.83;;
68923;SDS011;55961;52.156;20.942;2023-05-09T11:44:17;5.83;;;1.77;;
68923;SDS011;55961;52.156;20.942;2023-05-09T11:46:44;4.07;;;1.80;;
68923;SDS011;55961;52.156;20.942;2023-05-09T11:49:11;4.53;;;2.10;;
68923;SDS011;55961;52.156;20.942;2023-05-09T11:51:38;10.70;;;2.20;;
68923;SDS011;55961;52.156;20.942;2023-05-09T11:54:05;4.55;;;1.80;;
68923;SDS011;55961;52.156;20.942;2023-05-09T11:56:33;5.10;;;1.73;;
68923;SDS011;55961;52.156;20.942;2023-05-09T11:59:00;4.68;;;2.08;;
68923;SDS011;55961;52.156;20.942;2023-05-09T12:01:27;3.83;;;1.90;;
68923;SDS011;55961;52.156;20.942;2023-05-09T12:03:59;4.28;;;1.98;;
68923;SDS011;55961;52.156;20.942;2023-05-09T12:06:26;5.32;;;1.98;;
68923;SDS011;55961;52.156;20.942;2023-05-09T12:08:53;3.57;;;2.07;;
68923;SDS011;55961;52.156;20.942;2023-05-09T12:11:20;5.35;;;2.10;;
68923;SDS011;55961;52.156;20.942;2023-05-09T12:13:46;4.45;;;1.80;;
68923;SDS011;55961;52.156;20.942;2023-05-09T12:16:14;4.22;;;1.75;;
68923;SDS011;55961;52.156;20.942;2023-05-09T12:18:47;4.32;;;1.60;;
68923;SDS011;55961;52.156;20.942;2023-05-09T12:21:14;3.73;;;1.40;;
68923;SDS011;55961;52.156;20.942;2023-05-09T12:23:41;3.35;;;1.75;;
68923;SDS011;55961;52.156;20.942;2023-05-09T12:26:07;4.13;;;1.90;;
68923;SDS011;55961;52.156;20.942;2023-05-09T12:28:34;5.72;;;2.63;;
68923;SDS011;55961;52.156;20.942;2023-05-09T12:31:00;3.97;;;1.80;;
68923;SDS011;55961;52.156;20.942;2023-05-09T12:33:27;3.73;;;2.10;;
68923;SDS011;55961;52.156;20.942;2023-05-09T12:36:01;3.63;;;2.10;;
68923;SDS011;55961;52.156;20.942;2023-05-09T12:38:29;5.90;;;1.70;;
68923;SDS011;55961;52.156;20.942;2023-05-09T12:41:08;5.10;;;1.90;;
68923;SDS011;55961;52.156;20.942;2023-05-09T12:43:36;3.77;;;1.87;;
68923;SDS011;55961;52.156;20.942;2023-05-09T12:46:03;5.22;;;1.60;;
68923;SDS011;55961;52.156;20.942;2023-05-09T12:48:33;3.10;;;1.67;;
68923;SDS011;55961;52.156;20.942;2023-05-09T12:51:02;9.35;;;1.70;;
68923;SDS011;55961;52.156;20.942;2023-05-09T12:53:35;7.10;;;1.92;;
68923;SDS011;55961;52.156;20.942;2023-05-09T12:56:03;4.80;;;1.87;;
68923;SDS011;55961;52.156;20.942;2023-05-09T12:58:35;4.47;;;1.90;;
68923;SDS011;55961;52.156;20.942;2023-05-09T13:01:04;4.18;;;2.17;;
68923;SDS011;55961;52.156;20.942;2023-05-09T13:03:31;3.28;;;1.63;;
68923;SDS011;55961;52.156;20.942;2023-05-09T13:06:08;5.40;;;1.77;;
68923;SDS011;55961;52.156;20.942;2023-05-09T13:08:37;5.07;;;2.10;;
68923;SDS011;55961;52.156;20.942;2023-05-09T13:11:03;3.55;;;1.80;;
68923;SDS011;55961;52.156;20.942;2023-05-09T13:13:29;6.72;;;2.05;;
68923;SDS011;55961;52.156;20.942;2023-05-09T13:15:56;6.70;;;1.70;;
68923;SDS011;55961;52.156;20.942;2023-05-09T13:18:22;5.43;;;2.10;;
68923;SDS011;55961;52.156;20.942;2023-05-09T13:20:51;4.93;;;1.77;;
68923;SDS011;55961;52.156;20.942;2023-05-09T13:23:17;3.38;;;1.73;;
68923;SDS011;55961;52.156;20.942;2023-05-09T13:25:43;4.90;;;1.77;;
68923;SDS011;55961;52.156;20.942;2023-05-09T13:28:09;4.75;;;2.20;;
68923;SDS011;55961;52.156;20.942;2023-05-09T13:30:35;3.53;;;1.90;;
68923;SDS011;55961;52.156;20.942;2023-05-09T13:33:01;3.30;;;1.60;;
68923;SDS011;55961;52.156;20.942;2023-05-09T13:35:27;4.97;;;1.98;;
68923;SDS011;55961;52.156;20.942;2023-05-09T13:37:53;3.50;;;1.97;;
68923;SDS011;55961;52.156;20.942;2023-05-09T13:40:18;4.72;;;2.00;;
68923;SDS011;55961;52.156;20.942;2023-05-09T13:42:45;5.88;;;2.22;;
68923;SDS011;55961;52.156;20.942;2023-05-09T13:45:13;4.43;;;2.20;;
68923;SDS011;55961;52.156;20.942;2023-05-09T13:47:39;4.70;;;1.60;;
68923;SDS011;55961;52.156;20.942;2023-05-09T13:50:05;4.97;;;2.10;;
68923;SDS011;55961;52.156;20.942;2023-05-09T13:52:32;3.30;;;1.50;;
68923;SDS011;55961;52.156;20.942;2023-05-09T13:54:58;6.83;;;2.30;;
68923;SDS011;55961;52.156;20.942;2023-05-09T13:57:24;3.85;;;1.60;;
68923;SDS011;55961;52.156;20.942;2023-05-09T13:59:50;5.57;;;2.30;;
68923;SDS011;55961;52.156;20.942;2023-05-09T14:02:16;6.55;;;2.30;;
68923;SDS011;55961;52.156;20.942;2023-05-09T14:04:43;3.97;;;1.97;;
68923;SDS011;55961;52.156;20.942;2023-05-09T14:07:09;6.00;;;2.50;;
68923;SDS011;55961;52.156;20.942;2023-05-09T14:09:36;4.72;;;1.92;;
68923;SDS011;55961;52.156;20.942;2023-05-09T14:12:04;3.92;;;2.13;;
68923;SDS011;55961;52.156;20.942;2023-05-09T14:14:30;10.27;;;2.13;;
68923;SDS011;55961;52.156;20.942;2023-05-09T14:16:56;4.67;;;1.97;;
68923;SDS011;55961;52.156;20.942;2023-05-09T14:19:23;6.90;;;2.05;;
68923;SDS011;55961;52.156;20.942;2023-05-09T14:21:54;4.13;;;2.40;;
68923;SDS011;55961;52.156;20.942;2023-05-09T14:24:20;6.32;;;2.70;;
68923;SDS011;55961;52.156;20.942;2023-05-09T14:26:46;6.10;;;2.10;;
68923;SDS011;55961;52.156;20.942;2023-05-09T14:29:12;7.80;;;2.20;;
68923;SDS011;55961;52.156;20.942;2023-05-09T14:31:38;4.22;;;2.10;;
68923;SDS011;55961;52.156;20.942;2023-05-09T14:34:04;4.80;;;1.83;;
68923;SDS011;55961;52.156;20.942;2023-05-09T14:36:30;4.10;;;1.83;;
68923;SDS011;55961;52.156;20.942;2023-05-09T14:38:57;4.33;;;2.33;;
68923;SDS011;55961;52.156;20.942;2023-05-09T14:41:23;4.43;;;2.08;;
68923;SDS011;55961;52.156;20.942;2023-05-09T14:43:49;6.15;;;2.33;;
68923;SDS011;55961;52.156;20.942;2023-05-09T14:46:15;4.72;;;2.28;;
68923;SDS011;55961;52.156;20.942;2023-05-09T14:48:41;7.00;;;2.63;;
68923;SDS011;55961;52.156;20.942;2023-05-09T14:51:07;5.95;;;3.42;;
68923;SDS011;55961;52.156;20.942;2023-05-09T14:53:33;6.60;;;3.10;;
68923;SDS011;55961;52.156;20.942;2023-05-09T14:56:06;7.25;;;3.45;;